sensor_id;sensor_type;location;lat;lon;timestamp;P1;durP1;ratioP1;P2;durP2;ratioP2
42590;SDS011;28218;53.342;-6.216;2023-04-05T00:00:31;4.40;;;1.65;;
42590;SDS011;28218;53.342;-6.216;2023-04-05T00:03:00;5.32;;;1.60;;
42590;SDS011;28218;53.342;-6.216;2023-04-05T00:05:30;8.43;;;1.90;;
42590;SDS011;28218;53.342;-6.216;2023-04-05T00:08:00;2.90;;;1.60;;
42590;SDS011;28218;53.342;-6.216;2023-04-05T00:10:28;2.28;;;1.58;;
42590;SDS011;28218;53.342;-6.216;2023-04-05T00:12:57;1.60;;;1.30;;
42590;SDS011;28218;53.342;-6.216;2023-04-05T00:15:26;5.70;;;1.70;;
42590;SDS011;28218;53.342;-6.216;2023-04-05T00:17:54;2.72;;;1.23;;
42590;SDS011;28218;53.342;-6.216;2023-04-05T00:20:23;4.22;;;1.10;;
42590;SDS011;28218;53.342;-6.216;2023-04-05T00:22:53;1.52;;;1.25;;
42590;SDS011;28218;53.342;-6.216;2023-04-05T00:25:21;5.10;;;1.77;;
42590;SDS011;28218;53.342;-6.216;2023-04-05T00:27:49;3.03;;;1.75;;
42590;SDS011;28218;53.342;-6.216;2023-04-05T00:30:17;3.15;;;1.83;;
42590;SDS011;28218;53.342;-6.216;2023-04-05T00:32:47;3.97;;;1.45;;
42590;SDS011;28218;53.342;-6.216;2023-04-05T00:35:16;3.65;;;1.63;;
42590;SDS011;28218;53.342;-6.216;2023-04-05T00:37:44;7.70;;;2.40;;
42590;SDS011;28218;53.342;-6.216;2023-04-05T00:40:13;2.70;;;1.25;;
42590;SDS011;28218;53.342;-6.216;2023-04-05T00:42:42;3.15;;;1.27;;
42590;SDS011;28218;53.342;-6.216;2023-04-05T00:45:10;10.85;;;2.88;;
42590;SDS011;28218;53.342;-6.216;2023-04-05T00:47:38;3.10;;;1.73;;
42590;SDS011;28218;53.342;-6.216;2023-04-05T00:50:09;4.72;;;1.77;;
42590;SDS011;28218;53.342;-6.216;2023-04-05T00:52:39;4.53;;;1.58;;
42590;SDS011;28218;53.342;-6.216;2023-04-05T00:55:08;6.30;;;1.48;;
42590;SDS011;28218;53.342;-6.216;2023-04-05T00:57:39;5.10;;;1.55;;
42590;SDS011;28218;53.342;-6.216;2023-04-05T01:00:08;1.30;;;0.93;;
42590;SDS011;28218;53.342;-6.216;2023-04-05T01:02:40;2.22;;;0.90;;
42590;SDS011;28218;53.342;-6.216;2023-04-05T01:05:23;1.95;;;0.50;;
42590;SDS011;28218;53.342;-6.216;2023-04-05T01:08:00;3.10;;;0.60;;
42590;SDS011;28218;53.342;-6.216;2023-04-05T01:10:35;2.78;;;0.45;;
42590;SDS011;28218;53.342;-6.216;2023-04-05T01:13:10;1.92;;;0.52;;
42590;SDS011;28218;53.342;-6.216;2023-04-05T01:15:39;0.47;;;0.40;;
42590;SDS011;28218;53.342;-6.216;2023-04-05T01:18:07;1.08;;;0.38;;
42590;SDS011;28218;53.342;-6.216;2023-04-05T01:20:37;1.52;;;0.57;;
42590;SDS011;28218;53.342;-6.216;2023-04-05T01:23:20;3.22;;;0.82;;
42590;SDS011;28218;53.342;-6.216;2023-04-05T01:26:12;2.63;;;0.70;;
42590;SDS011;28218;53.342;-6.216;2023-04-05T01:31:57;4.13;;;0.85;;
42590;SDS011;28218;53.342;-6.216;2023-04-05T01:34:32;5.38;;;0.63;;
42590;SDS011;28218;53.342;-6.216;2023-04-05T01:37:07;1.30;;;0.40;;
42590;SDS011;28218;53.342;-6.216;2023-04-05T01:39:39;2.05;;;0.30;;
42590;SDS011;28218;53.342;-6.216;2023-04-05T01:42:07;2.05;;;0.40;;
42590;SDS011;28218;53.342;-6.216;2023-04-05T01:44:37;1.40;;;0.45;;
42590;SDS011;28218;53.342;-6.216;2023-04-05T01:47:07;0.93;;;0.28;;
42590;SDS011;28218;53.342;-6.216;2023-04-05T01:49:35;0.40;;;0.30;;
42590;SDS011;28218;53.342;-6.216;2023-04-05T01:52:03;0.68;;;0.22;;
42590;SDS011;28218;53.342;-6.216;2023-04-05T01:54:31;0.20;;;0.20;;
42590;SDS011;28218;53.342;-6.216;2023-04-05T01:56:59;0.52;;;0.30;;
42590;SDS011;28218;53.342;-6.216;2023-04-05T01:59:27;0.30;;;0.30;;
42590;SDS011;28218;53.342;-6.216;2023-04-05T02:01:56;0.77;;;0.40;;
42590;SDS011;28218;53.342;-6.216;2023-04-05T02:04:25;0.70;;;0.47;;
42590;SDS011;28218;53.342;-6.216;2023-04-05T02:06:53;0.30;;;0.30;;
42590;SDS011;28218;53.342;-6.216;2023-04-05T02:09:22;0.52;;;0.30;;
42590;SDS011;28218;53.342;-6.216;2023-04-05T02:11:50;0.20;;;0.20;;
42590;SDS011;28218;53.342;-6.216;2023-04-05T02:14:18;0.25;;;0.25;;
42590;SDS011;28218;53.342;-6.216;2023-04-05T02:16:46;1.55;;;0.35;;
42590;SDS011;28218;53.342;-6.216;2023-04-05T02:19:15;0.30;;;0.28;;
42590;SDS011;28218;53.342;-6.216;2023-04-05T02:21:49;0.88;;;0.30;;
42590;SDS011;28218;53.342;-6.216;2023-04-05T02:24:20;0.40;;;0.40;;
42590;SDS011;28218;53.342;-6.216;2023-04-05T02:26:48;0.20;;;0.20;;
42590;SDS011;28218;53.342;-6.216;2023-04-05T02:29:16;1.00;;;0.30;;
42590;SDS011;28218;53.342;-6.216;2023-04-05T02:31:44;0.20;;;0.20;;
42590;SDS011;28218;53.342;-6.216;2023-04-05T02:34:13;0.10;;;0.10;;
42590;SDS011;28218;53.342;-6.216;2023-04-05T02:36:41;0.20;;;0.20;;
42590;SDS011;28218;53.342;-6.216;2023-04-05T02:39:11;1.77;;;0.32;;
42590;SDS011;28218;53.342;-6.216;2023-04-05T02:41:39;0.85;;;0.20;;
42590;SDS011;28218;53.342;-6.216;2023-04-05T02:44:08;0.20;;;0.20;;
42590;SDS011;28218;53.342;-6.216;2023-04-05T02:46:36;1.63;;;0.28;;
42590;SDS011;28218;53.342;-6.216;2023-04-05T02:49:04;1.85;;;0.10;;
42590;SDS011;28218;53.342;-6.216;2023-04-05T02:51:32;0.10;;;0.10;;
42590;SDS011;28218;53.342;-6.216;2023-04-05T02:54:01;0.10;;;0.10;;
42590;SDS011;28218;53.342;-6.216;2023-04-05T02:56:31;1.48;;;0.28;;
42590;SDS011;28218;53.342;-6.216;2023-04-05T02:58:59;0.10;;;0.10;;
42590;SDS011;28218;53.342;-6.216;2023-04-05T03:01:28;0.75;;;0.30;;
42590;SDS011;28218;53.342;-6.216;2023-04-05T03:03:58;0.22;;;0.17;;
42590;SDS011;28218;53.342;-6.216;2023-04-05T03:06:26;0.40;;;0.20;;
42590;SDS011;28218;53.342;-6.216;2023-04-05T03:08:57;0.10;;;0.10;;
42590;SDS011;28218;53.342;-6.216;2023-04-05T03:11:27;0.10;;;0.10;;
42590;SDS011;28218;53.342;-6.216;2023-04-05T03:13:57;0.30;;;0.20;;
42590;SDS011;28218;53.342;-6.216;2023-04-05T03:16:25;2.60;;;0.75;;
42590;SDS011;28218;53.342;-6.216;2023-04-05T03:18:54;2.47;;;0.38;;
42590;SDS011;28218;53.342;-6.216;2023-04-05T03:21:22;0.63;;;0.30;;
42590;SDS011;28218;53.342;-6.216;2023-04-05T03:23:52;1.98;;;0.20;;
42590;SDS011;28218;53.342;-6.216;2023-04-05T03:26:20;0.20;;;0.20;;
42590;SDS011;28218;53.342;-6.216;2023-04-05T03:28:49;0.65;;;0.40;;
42590;SDS011;28218;53.342;-6.216;2023-04-05T03:31:19;0.40;;;0.30;;
42590;SDS011;28218;53.342;-6.216;2023-04-05T03:33:47;1.40;;;0.20;;
42590;SDS011;28218;53.342;-6.216;2023-04-05T03:36:15;0.98;;;0.30;;
42590;SDS011;28218;53.342;-6.216;2023-04-05T03:38:45;0.35;;;0.35;;
42590;SDS011;28218;53.342;-6.216;2023-04-05T03:41:13;2.08;;;0.35;;
42590;SDS011;28218;53.342;-6.216;2023-04-05T03:43:41;0.40;;;0.30;;
42590;SDS011;28218;53.342;-6.216;2023-04-05T03:46:09;2.22;;;0.95;;
42590;SDS011;28218;53.342;-6.216;2023-04-05T03:48:39;0.38;;;0.38;;
42590;SDS011;28218;53.342;-6.216;2023-04-05T03:51:07;1.05;;;0.40;;
42590;SDS011;28218;53.342;-6.216;2023-04-05T03:53:35;1.77;;;0.45;;
42590;SDS011;28218;53.342;-6.216;2023-04-05T03:56:03;0.17;;;0.17;;
42590;SDS011;28218;53.342;-6.216;2023-04-05T03:58:32;2.28;;;0.20;;
42590;SDS011;28218;53.342;-6.216;2023-04-05T04:01:00;2.58;;;0.88;;
42590;SDS011;28218;53.342;-6.216;2023-04-05T04:03:28;1.08;;;0.50;;
42590;SDS011;28218;53.342;-6.216;2023-04-05T04:05:58;0.93;;;0.22;;
42590;SDS011;28218;53.342;-6.216;2023-04-05T04:08:27;0.40;;;0.30;;
42590;SDS011;28218;53.342;-6.216;2023-04-05T04:10:55;1.17;;;0.50;;
42590;SDS011;28218;53.342;-6.216;2023-04-05T04:13:23;1.17;;;0.38;;
42590;SDS011;28218;53.342;-6.216;2023-04-05T04:15:52;0.85;;;0.30;;
42590;SDS011;28218;53.342;-6.216;2023-04-05T04:18:20;1.15;;;0.35;;
42590;SDS011;28218;53.342;-6.216;2023-04-05T04:20:48;1.98;;;0.30;;
42590;SDS011;28218;53.342;-6.216;2023-04-05T04:23:19;1.20;;;0.50;;
42590;SDS011;28218;53.342;-6.216;2023-04-05T04:25:48;1.00;;;0.30;;
42590;SDS011;28218;53.342;-6.216;2023-04-05T04:28:20;1.73;;;0.30;;
42590;SDS011;28218;53.342;-6.216;2023-04-05T04:30:50;1.00;;;0.38;;
42590;SDS011;28218;53.342;-6.216;2023-04-05T04:33:18;3.35;;;0.30;;
42590;SDS011;28218;53.342;-6.216;2023-04-05T04:35:47;0.57;;;0.38;;
42590;SDS011;28218;53.342;-6.216;2023-04-05T04:38:15;0.65;;;0.28;;
42590;SDS011;28218;53.342;-6.216;2023-04-05T04:40:47;3.80;;;0.57;;
42590;SDS011;28218;53.342;-6.216;2023-04-05T04:43:16;0.52;;;0.32;;
42590;SDS011;28218;53.342;-6.216;2023-04-05T04:45:45;1.27;;;0.65;;
42590;SDS011;28218;53.342;-6.216;2023-04-05T04:48:14;0.30;;;0.30;;
42590;SDS011;28218;53.342;-6.216;2023-04-05T04:50:43;1.08;;;0.40;;
42590;SDS011;28218;53.342;-6.216;2023-04-05T04:53:11;1.15;;;0.47;;
42590;SDS011;28218;53.342;-6.216;2023-04-05T04:55:42;1.98;;;0.35;;
42590;SDS011;28218;53.342;-6.216;2023-04-05T04:58:13;0.93;;;0.52;;
42590;SDS011;28218;53.342;-6.216;2023-04-05T05:00:41;3.33;;;0.45;;
42590;SDS011;28218;53.342;-6.216;2023-04-05T05:03:11;0.77;;;0.60;;
42590;SDS011;28218;53.342;-6.216;2023-04-05T05:05:42;2.75;;;0.80;;
42590;SDS011;28218;53.342;-6.216;2023-04-05T05:08:11;1.13;;;0.50;;
42590;SDS011;28218;53.342;-6.216;2023-04-05T05:10:39;1.92;;;0.50;;
42590;SDS011;28218;53.342;-6.216;2023-04-05T05:13:09;0.73;;;0.40;;
42590;SDS011;28218;53.342;-6.216;2023-04-05T05:15:39;1.08;;;0.38;;
42590;SDS011;28218;53.342;-6.216;2023-04-05T05:18:07;2.63;;;0.30;;
42590;SDS011;28218;53.342;-6.216;2023-04-05T05:20:36;0.65;;;0.30;;
42590;SDS011;28218;53.342;-6.216;2023-04-05T05:23:04;0.55;;;0.38;;
42590;SDS011;28218;53.342;-6.216;2023-04-05T05:25:32;0.60;;;0.40;;
42590;SDS011;28218;53.342;-6.216;2023-04-05T05:28:01;1.70;;;0.30;;
42590;SDS011;28218;53.342;-6.216;2023-04-05T05:30:29;1.77;;;0.50;;
42590;SDS011;28218;53.342;-6.216;2023-04-05T05:32:58;2.38;;;1.10;;
42590;SDS011;28218;53.342;-6.216;2023-04-05T05:35:27;1.02;;;0.80;;
42590;SDS011;28218;53.342;-6.216;2023-04-05T05:37:56;0.60;;;0.60;;
42590;SDS011;28218;53.342;-6.216;2023-04-05T05:40:24;0.45;;;0.45;;
42590;SDS011;28218;53.342;-6.216;2023-04-05T05:42:52;0.50;;;0.40;;
42590;SDS011;28218;53.342;-6.216;2023-04-05T05:45:20;0.30;;;0.30;;
42590;SDS011;28218;53.342;-6.216;2023-04-05T05:47:49;0.90;;;0.40;;
42590;SDS011;28218;53.342;-6.216;2023-04-05T05:50:18;0.57;;;0.57;;
42590;SDS011;28218;53.342;-6.216;2023-04-05T05:52:47;1.85;;;0.40;;
42590;SDS011;28218;53.342;-6.216;2023-04-05T05:55:16;0.65;;;0.55;;
42590;SDS011;28218;53.342;-6.216;2023-04-05T05:57:44;1.00;;;0.70;;
42590;SDS011;28218;53.342;-6.216;2023-04-05T06:00:13;0.73;;;0.60;;
42590;SDS011;28218;53.342;-6.216;2023-04-05T06:02:42;2.05;;;0.55;;
42590;SDS011;28218;53.342;-6.216;2023-04-05T06:05:10;0.82;;;0.40;;
42590;SDS011;28218;53.342;-6.216;2023-04-05T06:07:40;0.85;;;0.50;;
42590;SDS011;28218;53.342;-6.216;2023-04-05T06:10:08;1.02;;;0.38;;
42590;SDS011;28218;53.342;-6.216;2023-04-05T06:12:37;0.70;;;0.28;;
42590;SDS011;28218;53.342;-6.216;2023-04-05T06:15:05;0.60;;;0.60;;
42590;SDS011;28218;53.342;-6.216;2023-04-05T06:17:34;1.60;;;0.40;;
42590;SDS011;28218;53.342;-6.216;2023-04-05T06:20:07;1.73;;;0.55;;
42590;SDS011;28218;53.342;-6.216;2023-04-05T06:22:37;0.95;;;0.40;;
42590;SDS011;28218;53.342;-6.216;2023-04-05T06:25:08;1.73;;;0.60;;
42590;SDS011;28218;53.342;-6.216;2023-04-05T06:30:07;1.85;;;0.40;;
42590;SDS011;28218;53.342;-6.216;2023-04-05T06:32:35;3.30;;;0.73;;
42590;SDS011;28218;53.342;-6.216;2023-04-05T06:35:04;1.30;;;0.60;;
42590;SDS011;28218;53.342;-6.216;2023-04-05T06:37:33;1.08;;;0.50;;
42590;SDS011;28218;53.342;-6.216;2023-04-05T06:40:01;0.50;;;0.40;;
42590;SDS011;28218;53.342;-6.216;2023-04-05T06:42:31;1.58;;;0.60;;
42590;SDS011;28218;53.342;-6.216;2023-04-05T06:44:59;3.50;;;0.80;;
42590;SDS011;28218;53.342;-6.216;2023-04-05T06:47:32;4.25;;;0.60;;
42590;SDS011;28218;53.342;-6.216;2023-04-05T06:50:00;3.00;;;0.70;;
42590;SDS011;28218;53.342;-6.216;2023-04-05T06:52:29;2.95;;;1.20;;
42590;SDS011;28218;53.342;-6.216;2023-04-05T06:54:57;1.67;;;0.50;;
42590;SDS011;28218;53.342;-6.216;2023-04-05T06:57:25;3.28;;;0.50;;
42590;SDS011;28218;53.342;-6.216;2023-04-05T06:59:55;3.97;;;0.68;;
42590;SDS011;28218;53.342;-6.216;2023-04-05T07:02:23;2.95;;;0.63;;
42590;SDS011;28218;53.342;-6.216;2023-04-05T07:04:52;2.47;;;0.60;;
42590;SDS011;28218;53.342;-6.216;2023-04-05T07:07:26;4.50;;;0.98;;
42590;SDS011;28218;53.342;-6.216;2023-04-05T07:09:54;2.92;;;0.80;;
42590;SDS011;28218;53.342;-6.216;2023-04-05T07:12:23;6.00;;;0.90;;
42590;SDS011;28218;53.342;-6.216;2023-04-05T07:14:51;2.20;;;0.90;;
42590;SDS011;28218;53.342;-6.216;2023-04-05T07:17:21;7.28;;;1.65;;
42590;SDS011;28218;53.342;-6.216;2023-04-05T07:19:49;1.80;;;0.90;;
42590;SDS011;28218;53.342;-6.216;2023-04-05T07:22:17;2.10;;;0.70;;
42590;SDS011;28218;53.342;-6.216;2023-04-05T07:24:45;5.00;;;0.98;;
42590;SDS011;28218;53.342;-6.216;2023-04-05T07:27:14;2.60;;;0.85;;
42590;SDS011;28218;53.342;-6.216;2023-04-05T07:29:42;3.63;;;0.82;;
42590;SDS011;28218;53.342;-6.216;2023-04-05T07:32:13;3.80;;;1.10;;
42590;SDS011;28218;53.342;-6.216;2023-04-05T07:34:43;3.70;;;0.80;;
42590;SDS011;28218;53.342;-6.216;2023-04-05T07:37:11;4.40;;;1.10;;
42590;SDS011;28218;53.342;-6.216;2023-04-05T07:39:39;4.00;;;1.50;;
42590;SDS011;28218;53.342;-6.216;2023-04-05T07:42:07;5.40;;;1.10;;
42590;SDS011;28218;53.342;-6.216;2023-04-05T07:44:36;3.33;;;1.00;;
42590;SDS011;28218;53.342;-6.216;2023-04-05T07:47:04;9.52;;;1.45;;
42590;SDS011;28218;53.342;-6.216;2023-04-05T07:49:32;5.05;;;2.00;;
42590;SDS011;28218;53.342;-6.216;2023-04-05T07:52:01;3.35;;;1.00;;
42590;SDS011;28218;53.342;-6.216;2023-04-05T07:54:30;6.30;;;1.30;;
42590;SDS011;28218;53.342;-6.216;2023-04-05T07:56:58;8.25;;;1.52;;
42590;SDS011;28218;53.342;-6.216;2023-04-05T07:59:28;4.90;;;1.52;;
42590;SDS011;28218;53.342;-6.216;2023-04-05T08:01:56;5.85;;;1.50;;
42590;SDS011;28218;53.342;-6.216;2023-04-05T08:04:37;5.50;;;1.50;;
42590;SDS011;28218;53.342;-6.216;2023-04-05T08:07:07;2.65;;;1.13;;
42590;SDS011;28218;53.342;-6.216;2023-04-05T08:09:35;5.22;;;1.35;;
42590;SDS011;28218;53.342;-6.216;2023-04-05T08:12:03;5.25;;;1.58;;
42590;SDS011;28218;53.342;-6.216;2023-04-05T08:14:32;6.32;;;1.40;;
42590;SDS011;28218;53.342;-6.216;2023-04-05T08:17:00;5.43;;;1.40;;
42590;SDS011;28218;53.342;-6.216;2023-04-05T08:19:29;4.03;;;1.30;;
42590;SDS011;28218;53.342;-6.216;2023-04-05T08:21:57;5.05;;;1.00;;
42590;SDS011;28218;53.342;-6.216;2023-04-05T08:24:26;2.78;;;1.00;;
42590;SDS011;28218;53.342;-6.216;2023-04-05T08:26:54;3.83;;;1.20;;
42590;SDS011;28218;53.342;-6.216;2023-04-05T08:29:23;5.07;;;1.13;;
42590;SDS011;28218;53.342;-6.216;2023-04-05T08:31:51;5.78;;;2.05;;
42590;SDS011;28218;53.342;-6.216;2023-04-05T08:34:19;6.38;;;1.40;;
42590;SDS011;28218;53.342;-6.216;2023-04-05T08:36:47;6.10;;;1.63;;
42590;SDS011;28218;53.342;-6.216;2023-04-05T08:39:15;3.75;;;1.33;;
42590;SDS011;28218;53.342;-6.216;2023-04-05T08:41:47;8.90;;;1.10;;
42590;SDS011;28218;53.342;-6.216;2023-04-05T08:44:22;8.50;;;2.15;;
42590;SDS011;28218;53.342;-6.216;2023-04-05T08:46:53;4.73;;;1.97;;
42590;SDS011;28218;53.342;-6.216;2023-04-05T08:49:23;6.53;;;1.80;;
42590;SDS011;28218;53.342;-6.216;2023-04-05T08:51:52;3.00;;;1.00;;
42590;SDS011;28218;53.342;-6.216;2023-04-05T08:54:20;4.68;;;1.30;;
42590;SDS011;28218;53.342;-6.216;2023-04-05T08:56:50;3.50;;;0.95;;
42590;SDS011;28218;53.342;-6.216;2023-04-05T08:59:20;4.68;;;0.90;;
42590;SDS011;28218;53.342;-6.216;2023-04-05T09:01:50;2.47;;;1.10;;
42590;SDS011;28218;53.342;-6.216;2023-04-05T09:04:21;2.05;;;1.40;;
42590;SDS011;28218;53.342;-6.216;2023-04-05T09:06:50;6.68;;;1.73;;
42590;SDS011;28218;53.342;-6.216;2023-04-05T09:09:20;1.83;;;0.93;;
42590;SDS011;28218;53.342;-6.216;2023-04-05T09:11:50;4.38;;;1.17;;
42590;SDS011;28218;53.342;-6.216;2023-04-05T09:14:19;6.82;;;0.98;;
42590;SDS011;28218;53.342;-6.216;2023-04-05T09:16:48;4.28;;;0.98;;
42590;SDS011;28218;53.342;-6.216;2023-04-05T09:19:16;5.10;;;0.98;;
42590;SDS011;28218;53.342;-6.216;2023-04-05T09:21:57;2.35;;;1.00;;
42590;SDS011;28218;53.342;-6.216;2023-04-05T09:24:30;3.35;;;0.80;;
42590;SDS011;28218;53.342;-6.216;2023-04-05T09:27:05;3.67;;;0.80;;
42590;SDS011;28218;53.342;-6.216;2023-04-05T09:29:35;4.63;;;1.40;;
42590;SDS011;28218;53.342;-6.216;2023-04-05T09:32:05;7.90;;;1.30;;
42590;SDS011;28218;53.342;-6.216;2023-04-05T09:34:34;2.70;;;1.00;;
42590;SDS011;28218;53.342;-6.216;2023-04-05T09:37:10;3.45;;;0.90;;
42590;SDS011;28218;53.342;-6.216;2023-04-05T09:39:40;6.28;;;0.90;;
42590;SDS011;28218;53.342;-6.216;2023-04-05T09:42:10;1.85;;;1.00;;
42590;SDS011;28218;53.342;-6.216;2023-04-05T09:44:50;2.17;;;0.77;;
42590;SDS011;28218;53.342;-6.216;2023-04-05T09:47:19;5.53;;;1.00;;
42590;SDS011;28218;53.342;-6.216;2023-04-05T09:49:48;2.65;;;0.95;;
42590;SDS011;28218;53.342;-6.216;2023-04-05T09:52:17;1.15;;;0.80;;
42590;SDS011;28218;53.342;-6.216;2023-04-05T09:54:46;5.30;;;1.33;;
42590;SDS011;28218;53.342;-6.216;2023-04-05T09:57:16;2.90;;;0.60;;
42590;SDS011;28218;53.342;-6.216;2023-04-05T09:59:45;3.70;;;0.75;;
42590;SDS011;28218;53.342;-6.216;2023-04-05T10:02:14;0.98;;;0.82;;
42590;SDS011;28218;53.342;-6.216;2023-04-05T10:04:43;4.18;;;0.98;;
42590;SDS011;28218;53.342;-6.216;2023-04-05T10:07:14;2.30;;;0.65;;
42590;SDS011;28218;53.342;-6.216;2023-04-05T10:09:44;3.08;;;1.00;;
42590;SDS011;28218;53.342;-6.216;2023-04-05T10:12:19;2.15;;;0.70;;
42590;SDS011;28218;53.342;-6.216;2023-04-05T10:14:52;1.33;;;0.93;;
42590;SDS011;28218;53.342;-6.216;2023-04-05T10:17:23;2.22;;;0.70;;
42590;SDS011;28218;53.342;-6.216;2023-04-05T10:19:58;4.40;;;1.17;;
42590;SDS011;28218;53.342;-6.216;2023-04-05T10:22:40;1.02;;;0.70;;
42590;SDS011;28218;53.342;-6.216;2023-04-05T10:27:54;2.92;;;0.73;;
42590;SDS011;28218;53.342;-6.216;2023-04-05T10:30:33;3.33;;;0.80;;
42590;SDS011;28218;53.342;-6.216;2023-04-05T10:33:06;1.33;;;0.73;;
42590;SDS011;28218;53.342;-6.216;2023-04-05T10:35:43;3.72;;;0.85;;
42590;SDS011;28218;53.342;-6.216;2023-04-05T10:38:21;2.92;;;0.63;;
42590;SDS011;28218;53.342;-6.216;2023-04-05T10:43:24;2.58;;;0.93;;
42590;SDS011;28218;53.342;-6.216;2023-04-05T10:45:53;8.13;;;1.10;;
42590;SDS011;28218;53.342;-6.216;2023-04-05T10:48:26;3.33;;;0.70;;
42590;SDS011;28218;53.342;-6.216;2023-04-05T10:51:02;4.47;;;1.13;;
42590;SDS011;28218;53.342;-6.216;2023-04-05T10:53:31;4.85;;;0.93;;
42590;SDS011;28218;53.342;-6.216;2023-04-05T10:56:00;6.35;;;1.20;;
42590;SDS011;28218;53.342;-6.216;2023-04-05T10:58:30;4.43;;;1.02;;
42590;SDS011;28218;53.342;-6.216;2023-04-05T11:00:59;2.63;;;0.70;;
42590;SDS011;28218;53.342;-6.216;2023-04-05T11:03:45;3.40;;;1.13;;
42590;SDS011;28218;53.342;-6.216;2023-04-05T11:06:18;3.35;;;1.08;;
42590;SDS011;28218;53.342;-6.216;2023-04-05T11:08:50;3.45;;;1.02;;
42590;SDS011;28218;53.342;-6.216;2023-04-05T11:11:21;2.22;;;1.35;;
42590;SDS011;28218;53.342;-6.216;2023-04-05T11:13:54;3.95;;;1.10;;
42590;SDS011;28218;53.342;-6.216;2023-04-05T11:16:23;6.93;;;0.85;;
42590;SDS011;28218;53.342;-6.216;2023-04-05T11:19:05;1.23;;;0.77;;
42590;SDS011;28218;53.342;-6.216;2023-04-05T11:21:34;3.92;;;1.05;;
42590;SDS011;28218;53.342;-6.216;2023-04-05T11:24:03;2.72;;;1.02;;
42590;SDS011;28218;53.342;-6.216;2023-04-05T11:26:51;4.95;;;1.10;;
42590;SDS011;28218;53.342;-6.216;2023-04-05T11:32:19;2.35;;;0.75;;
42590;SDS011;28218;53.342;-6.216;2023-04-05T11:34:58;3.35;;;0.95;;
42590;SDS011;28218;53.342;-6.216;2023-04-05T11:40:33;2.05;;;0.90;;
42590;SDS011;28218;53.342;-6.216;2023-04-05T11:43:03;0.90;;;0.90;;
42590;SDS011;28218;53.342;-6.216;2023-04-05T11:45:35;5.65;;;1.73;;
42590;SDS011;28218;53.342;-6.216;2023-04-05T11:48:04;3.63;;;1.35;;
42590;SDS011;28218;53.342;-6.216;2023-04-05T11:50:35;2.85;;;0.88;;
42590;SDS011;28218;53.342;-6.216;2023-04-05T11:53:11;3.20;;;1.13;;
42590;SDS011;28218;53.342;-6.216;2023-04-05T11:55:40;4.95;;;1.10;;
42590;SDS011;28218;53.342;-6.216;2023-04-05T11:58:10;6.53;;;1.17;;
42590;SDS011;28218;53.342;-6.216;2023-04-05T12:00:41;1.55;;;1.13;;
42590;SDS011;28218;53.342;-6.216;2023-04-05T12:03:10;3.13;;;0.90;;
42590;SDS011;28218;53.342;-6.216;2023-04-05T12:05:46;3.67;;;0.98;;
42590;SDS011;28218;53.342;-6.216;2023-04-05T12:08:15;2.17;;;0.85;;
42590;SDS011;28218;53.342;-6.216;2023-04-05T12:10:44;4.18;;;0.85;;
42590;SDS011;28218;53.342;-6.216;2023-04-05T12:13:24;2.03;;;0.88;;
42590;SDS011;28218;53.342;-6.216;2023-04-05T12:15:55;2.63;;;0.80;;
42590;SDS011;28218;53.342;-6.216;2023-04-05T12:18:25;2.05;;;0.63;;
42590;SDS011;28218;53.342;-6.216;2023-04-05T12:20:54;4.03;;;0.95;;
42590;SDS011;28218;53.342;-6.216;2023-04-05T12:23:23;2.15;;;0.85;;
42590;SDS011;28218;53.342;-6.216;2023-04-05T12:25:52;1.75;;;1.48;;
42590;SDS011;28218;53.342;-6.216;2023-04-05T12:28:22;6.75;;;1.38;;
42590;SDS011;28218;53.342;-6.216;2023-04-05T12:30:51;3.25;;;1.00;;
42590;SDS011;28218;53.342;-6.216;2023-04-05T12:33:28;7.70;;;1.23;;
42590;SDS011;28218;53.342;-6.216;2023-04-05T12:35:58;5.55;;;0.98;;
42590;SDS011;28218;53.342;-6.216;2023-04-05T12:38:32;3.42;;;0.90;;
42590;SDS011;28218;53.342;-6.216;2023-04-05T12:41:00;3.13;;;1.05;;
42590;SDS011;28218;53.342;-6.216;2023-04-05T12:43:36;1.33;;;0.98;;
42590;SDS011;28218;53.342;-6.216;2023-04-05T12:46:09;2.17;;;0.82;;
42590;SDS011;28218;53.342;-6.216;2023-04-05T12:48:39;2.55;;;1.15;;
42590;SDS011;28218;53.342;-6.216;2023-04-05T12:51:13;1.95;;;1.13;;
42590;SDS011;28218;53.342;-6.216;2023-04-05T12:53:43;0.95;;;0.90;;
42590;SDS011;28218;53.342;-6.216;2023-04-05T12:56:13;3.25;;;0.90;;
42590;SDS011;28218;53.342;-6.216;2023-04-05T12:58:42;2.55;;;1.10;;
42590;SDS011;28218;53.342;-6.216;2023-04-05T13:01:11;1.88;;;1.00;;
42590;SDS011;28218;53.342;-6.216;2023-04-05T13:03:40;1.60;;;0.82;;
42590;SDS011;28218;53.342;-6.216;2023-04-05T13:06:13;2.70;;;1.23;;
42590;SDS011;28218;53.342;-6.216;2023-04-05T13:08:41;2.55;;;1.50;;
42590;SDS011;28218;53.342;-6.216;2023-04-05T13:11:10;3.10;;;1.02;;
42590;SDS011;28218;53.342;-6.216;2023-04-05T13:13:38;3.13;;;1.13;;
42590;SDS011;28218;53.342;-6.216;2023-04-05T13:16:06;1.45;;;0.85;;
42590;SDS011;28218;53.342;-6.216;2023-04-05T13:18:34;5.97;;;1.10;;
42590;SDS011;28218;53.342;-6.216;2023-04-05T13:21:04;3.20;;;1.20;;
42590;SDS011;28218;53.342;-6.216;2023-04-05T13:23:35;3.45;;;1.08;;
42590;SDS011;28218;53.342;-6.216;2023-04-05T13:26:04;0.98;;;0.75;;
42590;SDS011;28218;53.342;-6.216;2023-04-05T13:28:33;1.42;;;1.30;;
42590;SDS011;28218;53.342;-6.216;2023-04-05T13:31:01;4.60;;;1.50;;
42590;SDS011;28218;53.342;-6.216;2023-04-05T13:33:32;1.10;;;0.95;;
42590;SDS011;28218;53.342;-6.216;2023-04-05T13:36:00;2.03;;;1.00;;
42590;SDS011;28218;53.342;-6.216;2023-04-05T13:38:29;3.03;;;0.90;;
42590;SDS011;28218;53.342;-6.216;2023-04-05T13:40:58;1.33;;;0.93;;
42590;SDS011;28218;53.342;-6.216;2023-04-05T13:43:26;4.95;;;1.50;;
42590;SDS011;28218;53.342;-6.216;2023-04-05T13:45:56;1.17;;;0.87;;
42590;SDS011;28218;53.342;-6.216;2023-04-05T13:48:25;2.00;;;1.30;;
42590;SDS011;28218;53.342;-6.216;2023-04-05T13:50:53;0.63;;;0.60;;
42590;SDS011;28218;53.342;-6.216;2023-04-05T13:53:21;2.13;;;0.80;;
42590;SDS011;28218;53.342;-6.216;2023-04-05T13:55:52;0.95;;;0.82;;
42590;SDS011;28218;53.342;-6.216;2023-04-05T13:58:20;2.25;;;0.52;;
42590;SDS011;28218;53.342;-6.216;2023-04-05T14:00:49;1.90;;;0.68;;
42590;SDS011;28218;53.342;-6.216;2023-04-05T14:03:19;2.22;;;0.88;;
42590;SDS011;28218;53.342;-6.216;2023-04-05T14:05:47;1.60;;;0.98;;
42590;SDS011;28218;53.342;-6.216;2023-04-05T14:08:18;2.55;;;0.73;;
42590;SDS011;28218;53.342;-6.216;2023-04-05T14:10:46;1.98;;;0.80;;
42590;SDS011;28218;53.342;-6.216;2023-04-05T14:13:16;1.75;;;0.60;;
42590;SDS011;28218;53.342;-6.216;2023-04-05T14:15:45;2.55;;;1.05;;
42590;SDS011;28218;53.342;-6.216;2023-04-05T14:18:13;1.60;;;1.00;;
42590;SDS011;28218;53.342;-6.216;2023-04-05T14:20:41;1.92;;;0.90;;
42590;SDS011;28218;53.342;-6.216;2023-04-05T14:23:09;3.28;;;1.40;;
42590;SDS011;28218;53.342;-6.216;2023-04-05T14:25:38;1.50;;;1.10;;
42590;SDS011;28218;53.342;-6.216;2023-04-05T14:28:06;1.15;;;1.02;;
42590;SDS011;28218;53.342;-6.216;2023-04-05T14:30:36;1.15;;;0.70;;
42590;SDS011;28218;53.342;-6.216;2023-04-05T14:33:04;1.10;;;0.70;;
42590;SDS011;28218;53.342;-6.216;2023-04-05T14:35:32;1.55;;;0.95;;
42590;SDS011;28218;53.342;-6.216;2023-04-05T14:38:01;3.13;;;0.90;;
42590;SDS011;28218;53.342;-6.216;2023-04-05T14:40:29;1.98;;;0.80;;
42590;SDS011;28218;53.342;-6.216;2023-04-05T14:42:57;1.65;;;0.75;;
42590;SDS011;28218;53.342;-6.216;2023-04-05T14:45:25;1.92;;;0.90;;
42590;SDS011;28218;53.342;-6.216;2023-04-05T14:47:55;1.25;;;0.80;;
42590;SDS011;28218;53.342;-6.216;2023-04-05T14:50:23;1.52;;;1.17;;
42590;SDS011;28218;53.342;-6.216;2023-04-05T14:52:52;5.45;;;1.75;;
42590;SDS011;28218;53.342;-6.216;2023-04-05T14:55:20;1.98;;;1.00;;
42590;SDS011;28218;53.342;-6.216;2023-04-05T14:57:48;2.63;;;1.10;;
42590;SDS011;28218;53.342;-6.216;2023-04-05T15:00:17;2.80;;;0.98;;
42590;SDS011;28218;53.342;-6.216;2023-04-05T15:02:46;3.47;;;2.10;;
42590;SDS011;28218;53.342;-6.216;2023-04-05T15:07:46;2.90;;;0.90;;